sensor_id;sensor_type;location;lat;lon;timestamp;P1;durP1;ratioP1;P2;durP2;ratioP2
77826;SDS011;67016;42.508;25.678;2023-02-28T00:00:29;24.48;;;15.60;;
77826;SDS011;67016;42.508;25.678;2023-02-28T00:02:54;23.55;;;15.57;;
77826;SDS011;67016;42.508;25.678;2023-02-28T00:05:21;25.75;;;16.27;;
77826;SDS011;67016;42.508;25.678;2023-02-28T00:07:47;25.98;;;16.15;;
77826;SDS011;67016;42.508;25.678;2023-02-28T00:10:16;20.40;;;14.15;;
77826;SDS011;67016;42.508;25.678;2023-02-28T00:12:52;24.45;;;14.48;;
77826;SDS011;67016;42.508;25.678;2023-02-28T00:15:19;25.52;;;14.98;;
77826;SDS011;67016;42.508;25.678;2023-02-28T00:17:45;25.88;;;14.75;;
77826;SDS011;67016;42.508;25.678;2023-02-28T00:20:12;32.75;;;18.80;;
77826;SDS011;67016;42.508;25.678;2023-02-28T00:22:39;36.28;;;16.48;;
77826;SDS011;67016;42.508;25.678;2023-02-28T00:25:09;29.02;;;15.85;;
77826;SDS011;67016;42.508;25.678;2023-02-28T00:27:36;27.80;;;14.75;;
77826;SDS011;67016;42.508;25.678;2023-02-28T00:30:03;25.33;;;14.60;;
77826;SDS011;67016;42.508;25.678;2023-02-28T00:32:30;23.45;;;15.07;;
77826;SDS011;67016;42.508;25.678;2023-02-28T00:34:55;25.27;;;15.65;;
77826;SDS011;67016;42.508;25.678;2023-02-28T00:37:21;28.83;;;14.80;;
77826;SDS011;67016;42.508;25.678;2023-02-28T00:39:48;23.13;;;14.95;;
77826;SDS011;67016;42.508;25.678;2023-02-28T00:42:14;19.35;;;14.35;;
77826;SDS011;67016;42.508;25.678;2023-02-28T00:44:40;23.25;;;14.40;;
77826;SDS011;67016;42.508;25.678;2023-02-28T00:47:09;25.67;;;14.75;;
77826;SDS011;67016;42.508;25.678;2023-02-28T00:49:35;18.77;;;14.50;;
77826;SDS011;67016;42.508;25.678;2023-02-28T00:52:01;21.92;;;14.88;;
77826;SDS011;67016;42.508;25.678;2023-02-28T00:54:27;29.17;;;15.98;;
77826;SDS011;67016;42.508;25.678;2023-02-28T00:56:53;25.15;;;15.80;;
77826;SDS011;67016;42.508;25.678;2023-02-28T00:59:18;21.92;;;16.13;;
77826;SDS011;67016;42.508;25.678;2023-02-28T01:01:45;25.55;;;16.85;;
77826;SDS011;67016;42.508;25.678;2023-02-28T01:04:11;23.58;;;16.75;;
77826;SDS011;67016;42.508;25.678;2023-02-28T01:06:37;28.13;;;16.40;;
77826;SDS011;67016;42.508;25.678;2023-02-28T01:09:04;27.52;;;15.82;;
77826;SDS011;67016;42.508;25.678;2023-02-28T01:11:31;28.70;;;15.77;;
77826;SDS011;67016;42.508;25.678;2023-02-28T01:13:57;28.55;;;16.42;;
77826;SDS011;67016;42.508;25.678;2023-02-28T01:16:23;27.58;;;16.35;;
77826;SDS011;67016;42.508;25.678;2023-02-28T01:18:49;38.38;;;18.15;;
77826;SDS011;67016;42.508;25.678;2023-02-28T01:21:15;33.80;;;18.90;;
77826;SDS011;67016;42.508;25.678;2023-02-28T01:23:42;31.58;;;18.65;;
77826;SDS011;67016;42.508;25.678;2023-02-28T01:26:09;33.50;;;19.25;;
77826;SDS011;67016;42.508;25.678;2023-02-28T01:28:37;34.17;;;20.05;;
77826;SDS011;67016;42.508;25.678;2023-02-28T01:31:03;36.72;;;20.45;;
77826;SDS011;67016;42.508;25.678;2023-02-28T01:33:28;32.17;;;20.33;;
77826;SDS011;67016;42.508;25.678;2023-02-28T01:36:01;38.80;;;21.02;;
77826;SDS011;67016;42.508;25.678;2023-02-28T01:38:29;39.42;;;20.65;;
77826;SDS011;67016;42.508;25.678;2023-02-28T01:40:54;36.28;;;20.63;;
77826;SDS011;67016;42.508;25.678;2023-02-28T01:44:03;35.95;;;21.40;;
77826;SDS011;67016;42.508;25.678;2023-02-28T01:46:09;38.97;;;21.23;;
77826;SDS011;67016;42.508;25.678;2023-02-28T01:48:38;33.97;;;21.63;;
77826;SDS011;67016;42.508;25.678;2023-02-28T01:51:08;37.67;;;23.00;;
77826;SDS011;67016;42.508;25.678;2023-02-28T01:53:39;34.55;;;22.35;;
77826;SDS011;67016;42.508;25.678;2023-02-28T01:56:08;42.70;;;22.70;;
77826;SDS011;67016;42.508;25.678;2023-02-28T01:58:35;40.80;;;23.88;;
77826;SDS011;67016;42.508;25.678;2023-02-28T02:01:02;41.30;;;25.02;;
77826;SDS011;67016;42.508;25.678;2023-02-28T02:03:28;44.13;;;24.27;;
77826;SDS011;67016;42.508;25.678;2023-02-28T02:05:54;44.25;;;23.98;;
77826;SDS011;67016;42.508;25.678;2023-02-28T02:08:22;46.38;;;23.80;;
77826;SDS011;67016;42.508;25.678;2023-02-28T02:10:50;39.28;;;23.55;;
77826;SDS011;67016;42.508;25.678;2023-02-28T02:16:18;36.35;;;22.95;;
77826;SDS011;67016;42.508;25.678;2023-02-28T02:21:45;36.42;;;21.83;;
77826;SDS011;67016;42.508;25.678;2023-02-28T02:35:47;35.55;;;20.10;;
77826;SDS011;67016;42.508;25.678;2023-02-28T02:38:20;42.65;;;20.98;;
77826;SDS011;67016;42.508;25.678;2023-02-28T02:41:08;32.78;;;20.20;;
77826;SDS011;67016;42.508;25.678;2023-02-28T02:43:58;36.13;;;20.67;;
77826;SDS011;67016;42.508;25.678;2023-02-28T02:46:29;41.75;;;20.98;;
77826;SDS011;67016;42.508;25.678;2023-02-28T02:49:00;37.22;;;21.10;;
77826;SDS011;67016;42.508;25.678;2023-02-28T02:51:26;38.15;;;20.42;;
77826;SDS011;67016;42.508;25.678;2023-02-28T02:53:54;37.03;;;21.27;;
77826;SDS011;67016;42.508;25.678;2023-02-28T02:56:24;42.30;;;20.95;;
77826;SDS011;67016;42.508;25.678;2023-02-28T02:58:52;32.63;;;19.23;;
77826;SDS011;67016;42.508;25.678;2023-02-28T03:01:20;35.78;;;19.63;;
77826;SDS011;67016;42.508;25.678;2023-02-28T03:03:56;35.17;;;21.50;;
77826;SDS011;67016;42.508;25.678;2023-02-28T03:06:23;35.90;;;20.13;;
77826;SDS011;67016;42.508;25.678;2023-02-28T03:08:49;35.05;;;19.08;;
77826;SDS011;67016;42.508;25.678;2023-02-28T03:11:15;31.38;;;18.15;;
77826;SDS011;67016;42.508;25.678;2023-02-28T03:16:32;30.40;;;17.60;;
77826;SDS011;67016;42.508;25.678;2023-02-28T03:29:47;31.92;;;18.23;;
77826;SDS011;67016;42.508;25.678;2023-02-28T03:35:22;30.27;;;16.83;;
77826;SDS011;67016;42.508;25.678;2023-02-28T03:37:49;27.23;;;16.10;;
77826;SDS011;67016;42.508;25.678;2023-02-28T03:40:19;26.95;;;15.45;;
77826;SDS011;67016;42.508;25.678;2023-02-28T03:42:47;27.03;;;16.13;;
77826;SDS011;67016;42.508;25.678;2023-02-28T03:45:16;29.20;;;15.75;;
77826;SDS011;67016;42.508;25.678;2023-02-28T03:47:54;26.38;;;15.43;;
77826;SDS011;67016;42.508;25.678;2023-02-28T03:50:31;24.92;;;15.52;;
77826;SDS011;67016;42.508;25.678;2023-02-28T03:53:02;27.80;;;15.10;;
77826;SDS011;67016;42.508;25.678;2023-02-28T03:55:34;34.60;;;17.13;;
77826;SDS011;67016;42.508;25.678;2023-02-28T03:58:07;38.45;;;17.20;;
77826;SDS011;67016;42.508;25.678;2023-02-28T04:00:45;27.98;;;15.40;;
77826;SDS011;67016;42.508;25.678;2023-02-28T04:03:13;27.30;;;16.35;;
77826;SDS011;67016;42.508;25.678;2023-02-28T04:05:52;30.67;;;15.80;;
77826;SDS011;67016;42.508;25.678;2023-02-28T04:08:19;33.72;;;15.65;;
77826;SDS011;67016;42.508;25.678;2023-02-28T04:10:48;31.73;;;16.27;;
77826;SDS011;67016;42.508;25.678;2023-02-28T04:13:18;30.00;;;16.75;;
77826;SDS011;67016;42.508;25.678;2023-02-28T04:15:44;24.60;;;15.98;;
77826;SDS011;67016;42.508;25.678;2023-02-28T04:18:10;33.72;;;16.45;;
77826;SDS011;67016;42.508;25.678;2023-02-28T04:20:35;24.73;;;14.90;;
77826;SDS011;67016;42.508;25.678;2023-02-28T04:23:01;25.83;;;16.08;;
77826;SDS011;67016;42.508;25.678;2023-02-28T04:25:27;27.58;;;15.95;;
77826;SDS011;67016;42.508;25.678;2023-02-28T04:27:52;23.52;;;14.77;;
77826;SDS011;67016;42.508;25.678;2023-02-28T04:30:18;29.70;;;16.95;;
77826;SDS011;67016;42.508;25.678;2023-02-28T04:32:43;31.30;;;15.40;;
77826;SDS011;67016;42.508;25.678;2023-02-28T04:35:09;30.55;;;17.05;;
77826;SDS011;67016;42.508;25.678;2023-02-28T04:37:35;27.33;;;16.98;;
77826;SDS011;67016;42.508;25.678;2023-02-28T04:40:02;33.20;;;17.40;;
77826;SDS011;67016;42.508;25.678;2023-02-28T04:42:28;28.02;;;16.30;;
77826;SDS011;67016;42.508;25.678;2023-02-28T04:45:01;26.88;;;15.00;;
77826;SDS011;67016;42.508;25.678;2023-02-28T04:47:27;31.05;;;15.80;;
77826;SDS011;67016;42.508;25.678;2023-02-28T04:49:53;30.25;;;15.40;;
77826;SDS011;67016;42.508;25.678;2023-02-28T04:52:19;26.83;;;16.20;;
77826;SDS011;67016;42.508;25.678;2023-02-28T04:54:44;27.45;;;15.25;;
77826;SDS011;67016;42.508;25.678;2023-02-28T04:57:10;29.00;;;14.52;;
77826;SDS011;67016;42.508;25.678;2023-02-28T04:59:36;26.80;;;14.55;;
77826;SDS011;67016;42.508;25.678;2023-02-28T05:02:02;23.15;;;13.98;;
77826;SDS011;67016;42.508;25.678;2023-02-28T05:04:34;20.33;;;12.88;;
77826;SDS011;67016;42.508;25.678;2023-02-28T05:07:04;25.05;;;13.60;;
77826;SDS011;67016;42.508;25.678;2023-02-28T05:09:35;24.10;;;13.18;;
77826;SDS011;67016;42.508;25.678;2023-02-28T05:12:03;25.13;;;12.48;;
77826;SDS011;67016;42.508;25.678;2023-02-28T05:14:37;20.70;;;12.23;;
77826;SDS011;67016;42.508;25.678;2023-02-28T05:17:04;16.75;;;11.85;;
77826;SDS011;67016;42.508;25.678;2023-02-28T05:19:30;23.73;;;12.60;;
77826;SDS011;67016;42.508;25.678;2023-02-28T05:21:55;21.77;;;12.02;;
77826;SDS011;67016;42.508;25.678;2023-02-28T05:24:21;19.33;;;12.07;;
77826;SDS011;67016;42.508;25.678;2023-02-28T05:26:51;23.52;;;11.98;;
77826;SDS011;67016;42.508;25.678;2023-02-28T05:29:17;18.17;;;12.45;;
77826;SDS011;67016;42.508;25.678;2023-02-28T05:31:43;27.38;;;11.65;;
77826;SDS011;67016;42.508;25.678;2023-02-28T05:34:09;18.92;;;12.55;;
77826;SDS011;67016;42.508;25.678;2023-02-28T05:36:37;21.67;;;12.77;;
77826;SDS011;67016;42.508;25.678;2023-02-28T05:39:05;20.55;;;12.60;;
77826;SDS011;67016;42.508;25.678;2023-02-28T05:41:32;19.67;;;12.73;;
77826;SDS011;67016;42.508;25.678;2023-02-28T05:44:07;23.90;;;12.95;;
77826;SDS011;67016;42.508;25.678;2023-02-28T05:46:46;18.88;;;10.88;;
77826;SDS011;67016;42.508;25.678;2023-02-28T05:49:12;20.63;;;11.60;;
77826;SDS011;67016;42.508;25.678;2023-02-28T05:51:38;23.95;;;12.73;;
77826;SDS011;67016;42.508;25.678;2023-02-28T05:54:05;24.40;;;12.40;;
77826;SDS011;67016;42.508;25.678;2023-02-28T05:56:31;21.05;;;12.20;;
77826;SDS011;67016;42.508;25.678;2023-02-28T05:58:59;20.88;;;11.68;;
77826;SDS011;67016;42.508;25.678;2023-02-28T06:01:33;20.35;;;11.60;;
77826;SDS011;67016;42.508;25.678;2023-02-28T06:04:03;22.33;;;12.43;;
77826;SDS011;67016;42.508;25.678;2023-02-28T06:06:31;23.27;;;11.77;;
77826;SDS011;67016;42.508;25.678;2023-02-28T06:09:08;22.45;;;11.43;;
77826;SDS011;67016;42.508;25.678;2023-02-28T06:11:37;17.10;;;10.52;;
77826;SDS011;67016;42.508;25.678;2023-02-28T06:14:03;21.02;;;10.73;;
77826;SDS011;67016;42.508;25.678;2023-02-28T06:16:30;21.05;;;11.48;;
77826;SDS011;67016;42.508;25.678;2023-02-28T06:18:58;18.50;;;11.13;;
77826;SDS011;67016;42.508;25.678;2023-02-28T06:21:27;18.83;;;10.27;;
77826;SDS011;67016;42.508;25.678;2023-02-28T06:23:54;27.27;;;10.52;;
77826;SDS011;67016;42.508;25.678;2023-02-28T06:26:20;19.95;;;11.23;;
77826;SDS011;67016;42.508;25.678;2023-02-28T06:28:47;17.35;;;10.10;;
77826;SDS011;67016;42.508;25.678;2023-02-28T06:31:14;22.45;;;12.85;;
77826;SDS011;67016;42.508;25.678;2023-02-28T06:33:41;21.30;;;11.52;;
77826;SDS011;67016;42.508;25.678;2023-02-28T06:36:12;21.52;;;12.75;;
77826;SDS011;67016;42.508;25.678;2023-02-28T06:38:39;24.92;;;12.48;;
77826;SDS011;67016;42.508;25.678;2023-02-28T06:41:06;21.45;;;11.43;;
77826;SDS011;67016;42.508;25.678;2023-02-28T06:43:34;23.08;;;11.40;;
77826;SDS011;67016;42.508;25.678;2023-02-28T06:46:03;19.85;;;10.82;;
77826;SDS011;67016;42.508;25.678;2023-02-28T06:48:30;18.52;;;11.18;;
77826;SDS011;67016;42.508;25.678;2023-02-28T06:51:07;22.73;;;10.65;;
77826;SDS011;67016;42.508;25.678;2023-02-28T06:53:38;20.02;;;11.88;;
77826;SDS011;67016;42.508;25.678;2023-02-28T06:56:04;23.00;;;12.50;;
77826;SDS011;67016;42.508;25.678;2023-02-28T06:58:31;22.02;;;12.07;;
77826;SDS011;67016;42.508;25.678;2023-02-28T07:00:57;27.92;;;11.95;;
77826;SDS011;67016;42.508;25.678;2023-02-28T07:03:22;20.23;;;11.20;;
77826;SDS011;67016;42.508;25.678;2023-02-28T07:05:48;24.67;;;10.38;;
77826;SDS011;67016;42.508;25.678;2023-02-28T07:08:14;17.65;;;10.73;;
77826;SDS011;67016;42.508;25.678;2023-02-28T07:10:40;19.85;;;11.48;;
77826;SDS011;67016;42.508;25.678;2023-02-28T07:13:06;27.13;;;10.65;;
77826;SDS011;67016;42.508;25.678;2023-02-28T07:15:32;27.42;;;10.10;;
77826;SDS011;67016;42.508;25.678;2023-02-28T07:17:58;20.92;;;10.80;;
77826;SDS011;67016;42.508;25.678;2023-02-28T07:20:24;25.63;;;11.00;;
77826;SDS011;67016;42.508;25.678;2023-02-28T07:22:50;26.70;;;11.07;;
77826;SDS011;67016;42.508;25.678;2023-02-28T07:25:26;19.92;;;11.52;;
77826;SDS011;67016;42.508;25.678;2023-02-28T07:27:53;24.75;;;11.43;;
77826;SDS011;67016;42.508;25.678;2023-02-28T07:30:19;19.33;;;10.30;;
77826;SDS011;67016;42.508;25.678;2023-02-28T07:32:45;20.85;;;11.20;;
77826;SDS011;67016;42.508;25.678;2023-02-28T07:35:11;22.23;;;12.05;;
77826;SDS011;67016;42.508;25.678;2023-02-28T07:37:37;26.00;;;11.55;;
77826;SDS011;67016;42.508;25.678;2023-02-28T07:40:04;28.58;;;11.90;;
77826;SDS011;67016;42.508;25.678;2023-02-28T07:42:33;27.40;;;11.90;;
77826;SDS011;67016;42.508;25.678;2023-02-28T07:45:03;28.10;;;12.65;;
77826;SDS011;67016;42.508;25.678;2023-02-28T07:47:29;24.00;;;11.75;;
77826;SDS011;67016;42.508;25.678;2023-02-28T07:49:55;29.88;;;12.57;;
77826;SDS011;67016;42.508;25.678;2023-02-28T07:52:21;27.83;;;13.25;;
77826;SDS011;67016;42.508;25.678;2023-02-28T07:54:51;24.05;;;13.90;;
77826;SDS011;67016;42.508;25.678;2023-02-28T07:57:17;28.45;;;13.10;;
77826;SDS011;67016;42.508;25.678;2023-02-28T07:59:43;35.22;;;13.88;;
77826;SDS011;67016;42.508;25.678;2023-02-28T08:02:12;35.38;;;15.05;;
77826;SDS011;67016;42.508;25.678;2023-02-28T08:04:39;31.02;;;14.73;;
77826;SDS011;67016;42.508;25.678;2023-02-28T08:07:05;25.20;;;13.45;;
77826;SDS011;67016;42.508;25.678;2023-02-28T08:09:31;30.05;;;14.35;;
77826;SDS011;67016;42.508;25.678;2023-02-28T08:11:57;32.88;;;16.20;;
77826;SDS011;67016;42.508;25.678;2023-02-28T08:14:23;34.45;;;16.23;;
77826;SDS011;67016;42.508;25.678;2023-02-28T08:16:49;27.20;;;15.52;;
77826;SDS011;67016;42.508;25.678;2023-02-28T08:19:15;37.78;;;15.50;;
77826;SDS011;67016;42.508;25.678;2023-02-28T08:21:42;27.35;;;14.65;;
77826;SDS011;67016;42.508;25.678;2023-02-28T08:24:08;28.92;;;14.15;;
77826;SDS011;67016;42.508;25.678;2023-02-28T08:26:34;32.03;;;15.00;;
77826;SDS011;67016;42.508;25.678;2023-02-28T08:29:00;27.85;;;15.02;;
77826;SDS011;67016;42.508;25.678;2023-02-28T08:31:26;26.50;;;14.23;;
77826;SDS011;67016;42.508;25.678;2023-02-28T08:33:52;31.05;;;14.45;;
77826;SDS011;67016;42.508;25.678;2023-02-28T08:36:20;36.42;;;14.65;;
77826;SDS011;67016;42.508;25.678;2023-02-28T08:38:46;23.25;;;14.70;;
77826;SDS011;67016;42.508;25.678;2023-02-28T08:41:12;30.13;;;14.85;;
77826;SDS011;67016;42.508;25.678;2023-02-28T08:43:38;27.38;;;14.30;;
77826;SDS011;67016;42.508;25.678;2023-02-28T08:46:05;30.25;;;13.55;;
77826;SDS011;67016;42.508;25.678;2023-02-28T08:48:32;31.17;;;13.60;;
77826;SDS011;67016;42.508;25.678;2023-02-28T08:51:00;26.27;;;14.57;;
77826;SDS011;67016;42.508;25.678;2023-02-28T08:53:27;27.13;;;14.00;;
77826;SDS011;67016;42.508;25.678;2023-02-28T08:55:59;33.33;;;15.20;;
77826;SDS011;67016;42.508;25.678;2023-02-28T08:58:26;30.75;;;13.95;;
77826;SDS011;67016;42.508;25.678;2023-02-28T09:00:53;31.10;;;14.15;;
77826;SDS011;67016;42.508;25.678;2023-02-28T09:03:21;26.80;;;16.38;;
77826;SDS011;67016;42.508;25.678;2023-02-28T09:05:56;39.58;;;14.95;;
77826;SDS011;67016;42.508;25.678;2023-02-28T09:08:24;30.92;;;14.90;;
77826;SDS011;67016;42.508;25.678;2023-02-28T09:10:51;25.45;;;13.15;;
77826;SDS011;67016;42.508;25.678;2023-02-28T09:13:17;27.33;;;12.68;;
77826;SDS011;67016;42.508;25.678;2023-02-28T09:15:43;29.60;;;12.65;;
77826;SDS011;67016;42.508;25.678;2023-02-28T09:18:09;24.45;;;12.65;;
77826;SDS011;67016;42.508;25.678;2023-02-28T09:20:39;37.65;;;13.75;;
77826;SDS011;67016;42.508;25.678;2023-02-28T09:23:05;26.42;;;13.45;;
77826;SDS011;67016;42.508;25.678;2023-02-28T09:25:31;22.10;;;12.93;;
77826;SDS011;67016;42.508;25.678;2023-02-28T09:27:57;26.83;;;12.15;;
77826;SDS011;67016;42.508;25.678;2023-02-28T09:30:23;24.10;;;11.98;;
77826;SDS011;67016;42.508;25.678;2023-02-28T09:32:48;20.20;;;11.80;;
77826;SDS011;67016;42.508;25.678;2023-02-28T09:35:19;28.25;;;12.70;;
77826;SDS011;67016;42.508;25.678;2023-02-28T09:37:46;26.85;;;12.25;;
77826;SDS011;67016;42.508;25.678;2023-02-28T09:40:14;35.83;;;13.13;;
77826;SDS011;67016;42.508;25.678;2023-02-28T09:42:44;34.03;;;13.63;;
77826;SDS011;67016;42.508;25.678;2023-02-28T09:45:30;26.40;;;12.43;;
77826;SDS011;67016;42.508;25.678;2023-02-28T09:47:59;34.72;;;13.77;;
77826;SDS011;67016;42.508;25.678;2023-02-28T09:50:35;22.95;;;13.40;;
77826;SDS011;67016;42.508;25.678;2023-02-28T09:53:26;26.88;;;14.63;;
77826;SDS011;67016;42.508;25.678;2023-02-28T09:55:59;29.85;;;13.05;;
77826;SDS011;67016;42.508;25.678;2023-02-28T10:06:58;24.95;;;12.73;;
77826;SDS011;67016;42.508;25.678;2023-02-28T10:09:30;20.77;;;11.40;;
77826;SDS011;67016;42.508;25.678;2023-02-28T10:12:03;21.90;;;11.57;;
77826;SDS011;67016;42.508;25.678;2023-02-28T10:14:30;22.00;;;12.63;;
77826;SDS011;67016;42.508;25.678;2023-02-28T10:17:02;21.40;;;12.07;;
77826;SDS011;67016;42.508;25.678;2023-02-28T10:22:18;25.17;;;12.10;;
77826;SDS011;67016;42.508;25.678;2023-02-28T10:24:53;25.30;;;11.20;;
77826;SDS011;67016;42.508;25.678;2023-02-28T10:27:20;31.00;;;11.57;;
77826;SDS011;67016;42.508;25.678;2023-02-28T10:29:51;25.75;;;13.23;;
77826;SDS011;67016;42.508;25.678;2023-02-28T10:32:21;29.15;;;11.98;;
77826;SDS011;67016;42.508;25.678;2023-02-28T10:34:52;22.52;;;11.88;;
77826;SDS011;67016;42.508;25.678;2023-02-28T10:37:22;22.02;;;11.00;;
77826;SDS011;67016;42.508;25.678;2023-02-28T10:39:47;26.83;;;12.13;;
77826;SDS011;67016;42.508;25.678;2023-02-28T10:42:24;32.28;;;11.48;;
77826;SDS011;67016;42.508;25.678;2023-02-28T10:45:11;24.55;;;10.25;;
77826;SDS011;67016;42.508;25.678;2023-02-28T10:48:01;24.92;;;11.50;;
77826;SDS011;67016;42.508;25.678;2023-02-28T10:53:17;29.85;;;12.20;;
77826;SDS011;67016;42.508;25.678;2023-02-28T10:56:01;22.50;;;11.77;;
77826;SDS011;67016;42.508;25.678;2023-02-28T11:01:44;33.30;;;13.30;;
77826;SDS011;67016;42.508;25.678;2023-02-28T11:09:34;18.63;;;10.50;;
77826;SDS011;67016;42.508;25.678;2023-02-28T11:12:02;18.38;;;10.98;;
77826;SDS011;67016;42.508;25.678;2023-02-28T11:14:31;17.20;;;10.48;;
77826;SDS011;67016;42.508;25.678;2023-02-28T11:17:02;18.90;;;10.57;;
77826;SDS011;67016;42.508;25.678;2023-02-28T11:19:44;18.23;;;11.52;;
77826;SDS011;67016;42.508;25.678;2023-02-28T11:22:17;22.02;;;11.93;;
77826;SDS011;67016;42.508;25.678;2023-02-28T11:24:47;20.38;;;11.30;;
77826;SDS011;67016;42.508;25.678;2023-02-28T11:29:59;20.73;;;13.35;;
77826;SDS011;67016;42.508;25.678;2023-02-28T11:32:27;22.00;;;12.57;;
77826;SDS011;67016;42.508;25.678;2023-02-28T11:37:36;22.17;;;13.75;;
77826;SDS011;67016;42.508;25.678;2023-02-28T11:40:16;19.67;;;13.57;;
77826;SDS011;67016;42.508;25.678;2023-02-28T11:42:46;22.70;;;13.25;;
77826;SDS011;67016;42.508;25.678;2023-02-28T11:48:04;22.70;;;13.90;;
77826;SDS011;67016;42.508;25.678;2023-02-28T11:56:27;23.13;;;14.32;;
77826;SDS011;67016;42.508;25.678;2023-02-28T11:59:09;22.17;;;14.13;;
77826;SDS011;67016;42.508;25.678;2023-02-28T12:02:17;25.23;;;14.90;;
77826;SDS011;67016;42.508;25.678;2023-02-28T12:04:52;22.73;;;14.77;;
77826;SDS011;67016;42.508;25.678;2023-02-28T12:16:41;26.25;;;13.70;;
77826;SDS011;67016;42.508;25.678;2023-02-28T12:22:10;23.33;;;14.98;;
77826;SDS011;67016;42.508;25.678;2023-02-28T12:24:47;30.05;;;15.65;;
77826;SDS011;67016;42.508;25.678;2023-02-28T12:27:33;28.45;;;16.23;;
77826;SDS011;67016;42.508;25.678;2023-02-28T12:32:54;34.03;;;18.67;;
77826;SDS011;67016;42.508;25.678;2023-02-28T12:35:24;33.90;;;18.52;;
77826;SDS011;67016;42.508;25.678;2023-02-28T12:40:25;34.05;;;19.17;;
77826;SDS011;67016;42.508;25.678;2023-02-28T12:43:04;34.92;;;19.75;;
77826;SDS011;67016;42.508;25.678;2023-02-28T12:45:39;34.72;;;21.20;;
77826;SDS011;67016;42.508;25.678;2023-02-28T12:48:19;38.42;;;20.27;;
77826;SDS011;67016;42.508;25.678;2023-02-28T12:50:48;38.20;;;22.08;;
77826;SDS011;67016;42.508;25.678;2023-02-28T12:53:25;32.80;;;21.05;;
77826;SDS011;67016;42.508;25.678;2023-02-28T12:56:22;38.55;;;22.58;;
77826;SDS011;67016;42.508;25.678;2023-02-28T12:59:14;42.03;;;23.60;;
77826;SDS011;67016;42.508;25.678;2023-02-28T13:05:26;43.80;;;24.35;;
77826;SDS011;67016;42.508;25.678;2023-02-28T13:11:04;39.08;;;22.42;;
77826;SDS011;67016;42.508;25.678;2023-02-28T13:13:33;43.42;;;24.05;;
77826;SDS011;67016;42.508;25.678;2023-02-28T13:16:03;41.15;;;23.88;;
77826;SDS011;67016;42.508;25.678;2023-02-28T13:18:31;38.38;;;23.08;;
77826;SDS011;67016;42.508;25.678;2023-02-28T13:21:02;40.47;;;23.58;;
77826;SDS011;67016;42.508;25.678;2023-02-28T13:26:17;38.92;;;23.30;;
77826;SDS011;67016;42.508;25.678;2023-02-28T13:34:27;36.00;;;21.90;;
77826;SDS011;67016;42.508;25.678;2023-02-28T13:40:50;40.65;;;23.17;;
77826;SDS011;67016;42.508;25.678;2023-02-28T13:42:53;44.80;;;23.90;;
77826;SDS011;67016;42.508;25.678;2023-02-28T13:45:26;40.65;;;23.60;;
77826;SDS011;67016;42.508;25.678;2023-02-28T13:48:02;40.40;;;22.75;;
77826;SDS011;67016;42.508;25.678;2023-02-28T13:50:33;41.08;;;22.85;;
77826;SDS011;67016;42.508;25.678;2023-02-28T13:58:22;45.70;;;21.88;;
77826;SDS011;67016;42.508;25.678;2023-02-28T14:06:38;43.63;;;25.27;;
77826;SDS011;67016;42.508;25.678;2023-02-28T14:11:50;49.55;;;26.30;;
77826;SDS011;67016;42.508;25.678;2023-02-28T14:16:59;47.97;;;26.63;;
77826;SDS011;67016;42.508;25.678;2023-02-28T14:19:28;45.58;;;26.45;;
77826;SDS011;67016;42.508;25.678;2023-02-28T14:30:19;45.28;;;26.25;;
77826;SDS011;67016;42.508;25.678;2023-02-28T14:35:58;43.00;;;24.52;;
77826;SDS011;67016;42.508;25.678;2023-02-28T14:41:22;46.53;;;26.17;;
77826;SDS011;67016;42.508;25.678;2023-02-28T14:43:50;46.88;;;26.67;;
77826;SDS011;67016;42.508;25.678;2023-02-28T14:46:39;46.63;;;23.67;;
77826;SDS011;67016;42.508;25.678;2023-02-28T14:49:05;48.60;;;25.33;;
77826;SDS011;67016;42.508;25.678;2023-02-28T14:51:32;47.28;;;25.27;;
77826;SDS011;67016;42.508;25.678;2023-02-28T14:53:59;45.72;;;24.10;;
77826;SDS011;67016;42.508;25.678;2023-02-28T14:56:34;49.45;;;27.13;;
77826;SDS011;67016;42.508;25.678;2023-02-28T14:59:02;52.33;;;29.92;;
77826;SDS011;67016;42.508;25.678;2023-02-28T15:01:28;48.33;;;25.70;;
77826;SDS011;67016;42.508;25.678;2023-02-28T15:04:00;49.75;;;26.90;;
77826;SDS011;67016;42.508;25.678;2023-02-28T15:06:27;47.03;;;24.75;;
77826;SDS011;67016;42.508;25.678;2023-02-28T15:09:10;56.63;;;31.50;;
77826;SDS011;67016;42.508;25.678;2023-02-28T15:11:40;45.17;;;25.55;;
77826;SDS011;67016;42.508;25.678;2023-02-28T15:14:06;50.92;;;27.15;;
77826;SDS011;67016;42.508;25.678;2023-02-28T15:16:36;47.55;;;24.50;;
77826;SDS011;67016;42.508;25.678;2023-02-28T15:21:41;47.63;;;23.05;;
77826;SDS011;67016;42.508;25.678;2023-02-28T15:26:50;48.70;;;24.30;;
77826;SDS011;67016;42.508;25.678;2023-02-28T15:29:20;48.40;;;23.23;;
77826;SDS011;67016;42.508;25.678;2023-02-28T15:31:48;41.88;;;22.15;;
77826;SDS011;67016;42.508;25.678;2023-02-28T15:34:43;43.53;;;22.50;;
77826;SDS011;67016;42.508;25.678;2023-02-28T15:39:53;44.72;;;21.77;;
77826;SDS011;67016;42.508;25.678;2023-02-28T15:42:21;43.20;;;21.42;;
77826;SDS011;67016;42.508;25.678;2023-02-28T15:44:48;42.75;;;21.50;;
77826;SDS011;67016;42.508;25.678;2023-02-28T15:47:16;42.60;;;21.25;;
77826;SDS011;67016;42.508;25.678;2023-02-28T15:49:48;40.35;;;21.08;;
77826;SDS011;67016;42.508;25.678;2023-02-28T15:52:16;36.92;;;20.75;;
77826;SDS011;67016;42.508;25.678;2023-02-28T15:54:48;35.83;;;20.27;;
77826;SDS011;67016;42.508;25.678;2023-02-28T15:57:18;37.13;;;19.02;;
77826;SDS011;67016;42.508;25.678;2023-02-28T15:59:51;38.95;;;19.15;;
77826;SDS011;67016;42.508;25.678;2023-02-28T16:02:31;37.88;;;19.38;;
77826;SDS011;67016;42.508;25.678;2023-02-28T16:07:26;35.10;;;18.15;;
77826;SDS011;67016;42.508;25.678;2023-02-28T16:09:53;35.90;;;18.85;;
77826;SDS011;67016;42.508;25.678;2023-02-28T16:12:20;33.97;;;17.55;;
77826;SDS011;67016;42.508;25.678;2023-02-28T16:14:48;32.70;;;18.42;;
77826;SDS011;67016;42.508;25.678;2023-02-28T16:17:22;31.35;;;16.98;;
77826;SDS011;67016;42.508;25.678;2023-02-28T16:19:57;30.05;;;17.27;;
77826;SDS011;67016;42.508;25.678;2023-02-28T16:22:23;30.63;;;17.27;;
77826;SDS011;67016;42.508;25.678;2023-02-28T16:24:50;31.25;;;16.88;;
77826;SDS011;67016;42.508;25.678;2023-02-28T16:27:18;26.27;;;15.27;;
77826;SDS011;67016;42.508;25.678;2023-02-28T16:29:46;27.23;;;15.73;;
77826;SDS011;67016;42.508;25.678;2023-02-28T16:32:12;25.42;;;14.55;;
77826;SDS011;67016;42.508;25.678;2023-02-28T16:34:40;23.23;;;13.07;;
77826;SDS011;67016;42.508;25.678;2023-02-28T16:37:24;22.08;;;13.73;;
77826;SDS011;67016;42.508;25.678;2023-02-28T16:39:49;21.90;;;11.95;;
77826;SDS011;67016;42.508;25.678;2023-02-28T16:42:20;24.27;;;11.98;;
77826;SDS011;67016;42.508;25.678;2023-02-28T16:44:48;18.55;;;11.15;;
77826;SDS011;67016;42.508;25.678;2023-02-28T16:47:14;18.65;;;10.68;;
77826;SDS011;67016;42.508;25.678;2023-02-28T16:49:39;18.88;;;10.18;;